Terminal Aerodrome Forecast
Issued by NWS

Home | Current Version | Previous Version | Text Only | Print | Product List | Glossary On
Versions: 1 2 3 4 5 6 7 8 9 10 11 12 13 14 15 16 17
000
FTUS46 KSEW 250500
TAFBLI
TAF
KBLI 250520Z 2506/2606 15005KT P6SM SCT035 BKN050 BKN200
      TEMPO 2506/2510 BKN030
     FM251900 19007KT P6SM VCSH BKN050=

USA.gov is the U.S. government's official web portal to all federal, state and local government web resources and services.